Time;durP1;ratioP1;P1;durP2;ratioP2;P2;SDS_P1;SDS_P2;PMS_P1;PMS_P2;Temp;Humidity;BMP_temperature;BMP_pressure;BME280_temperature;BME280_humidity;BME280_pressure;Samples;Min_cycle;Max_cycle;Signal;HPM_P1;HPM_P2
2022/04/24 00:01:02;;;;;;;24.82;15.00;;;;;;;;;;4286616;83;28460;-87
2022/04/24 00:07:03;;;;;;;25.00;14.53;;;;;;;;;;4284665;83;28506;-87
2022/04/24 00:13:04;;;;;;;23.83;12.80;;;;;;;;;;4285300;83;28559;-90
2022/04/24 00:19:05;;;;;;;27.77;14.87;;;;;;;;;;4266031;83;28488;-89
2022/04/24 00:25:06;;;;;;;23.45;13.90;;;;;;;;;;4290965;82;28511;-89
2022/04/24 00:31:07;;;;;;;26.62;14.98;;;;;;;;;;4285421;83;28528;-89
2022/04/24 00:37:08;;;;;;;28.47;16.67;;;;;;;;;;4292494;83;28492;-89
2022/04/24 00:43:09;;;;;;;26.05;14.87;;;;;;;;;;4302988;83;28518;-86
2022/04/24 00:49:28;;;;;;;23.85;13.85;;;;;;;;;;4302545;83;28487;-88
2022/04/24 00:55:30;;;;;;;27.77;14.70;;;;;;;;;;4281873;83;28532;-87
2022/04/24 01:01:32;;;;;;;32.00;17.15;;;;;;;;;;4302352;83;28563;-87
2022/04/24 01:07:32;;;;;;;28.50;15.70;;;;;;;;;;4302046;83;28568;-89
2022/04/24 01:13:33;;;;;;;30.02;15.83;;;;;;;;;;4279681;83;28480;-90
2022/04/24 01:19:35;;;;;;;28.80;16.02;;;;;;;;;;4303355;83;28560;-88
2022/04/24 01:25:36;;;;;;;28.50;15.65;;;;;;;;;;4300632;83;28451;-91
2022/04/24 01:31:37;;;;;;;30.15;15.63;;;;;;;;;;4304153;82;28515;-88
2022/04/24 01:37:40;;;;;;;27.05;15.28;;;;;;;;;;4309967;82;28567;-88
2022/04/24 01:43:42;;;;;;;28.55;15.63;;;;;;;;;;4285765;82;28554;-88
2022/04/24 01:49:43;;;;;;;28.98;16.75;;;;;;;;;;4281147;83;28472;-88
2022/04/24 01:55:43;;;;;;;32.17;17.30;;;;;;;;;;4270814;83;28527;-88
2022/04/24 02:01:44;;;;;;;34.48;17.05;;;;;;;;;;4281496;83;28562;-88
2022/04/24 02:07:45;;;;;;;38.10;20.05;;;;;;;;;;4300391;82;28509;-88
2022/04/24 02:13:46;;;;;;;30.92;17.60;;;;;;;;;;4301013;82;28496;-88
2022/04/24 02:19:47;;;;;;;29.50;16.45;;;;;;;;;;4301006;83;28511;-88
2022/04/24 02:25:48;;;;;;;28.87;15.90;;;;;;;;;;4281720;82;28520;-88
2022/04/24 02:31:49;;;;;;;38.42;20.25;;;;;;;;;;4300249;82;28522;-87
2022/04/24 02:37:50;;;;;;;37.13;21.70;;;;;;;;;;4259128;83;28507;-88
2022/04/24 02:43:50;;;;;;;37.38;22.22;;;;;;;;;;4227022;83;28589;-86
2022/04/24 02:49:51;;;;;;;48.65;26.10;;;;;;;;;;4288635;82;28521;-87
2022/04/24 02:55:52;;;;;;;44.08;23.95;;;;;;;;;;4303864;83;28516;-87
2022/04/24 03:01:54;;;;;;;46.18;25.40;;;;;;;;;;4283322;82;28467;-88
2022/04/24 03:07:55;;;;;;;46.33;25.88;;;;;;;;;;4299483;82;28491;-86
2022/04/24 03:13:56;;;;;;;42.38;22.85;;;;;;;;;;4288838;83;28517;-86
2022/04/24 03:19:57;;;;;;;37.48;22.25;;;;;;;;;;4297431;83;28535;-86
2022/04/24 03:25:58;;;;;;;43.63;23.77;;;;;;;;;;4305325;83;28512;-86
2022/04/24 03:31:59;;;;;;;40.28;23.20;;;;;;;;;;4308504;83;28507;-87
2022/04/24 03:38:00;;;;;;;39.27;20.97;;;;;;;;;;4307709;83;28559;-88
2022/04/24 03:44:01;;;;;;;43.08;23.50;;;;;;;;;;4307483;83;28512;-88
2022/04/24 03:50:02;;;;;;;40.95;22.35;;;;;;;;;;4307418;83;28512;-86
2022/04/24 03:56:04;;;;;;;39.25;22.55;;;;;;;;;;4308002;82;28506;-87
2022/04/24 04:02:05;;;;;;;37.05;20.68;;;;;;;;;;4288733;83;28488;-87
2022/04/24 04:08:06;;;;;;;32.78;19.00;;;;;;;;;;4341128;81;28477;-89
2022/04/24 04:14:07;;;;;;;32.80;18.95;;;;;;;;;;4307332;83;28578;-88
2022/04/24 04:20:11;;;;;;;38.28;22.10;;;;;;;;;;4285101;82;28452;-89
2022/04/24 04:26:11;;;;;;;40.98;22.15;;;;;;;;;;4307640;83;28519;-88
2022/04/24 04:32:12;;;;;;;38.10;22.20;;;;;;;;;;4292458;83;28573;-88
2022/04/24 04:38:14;;;;;;;36.38;20.90;;;;;;;;;;4305540;83;29214;-88
2022/04/24 04:44:15;;;;;;;42.60;23.02;;;;;;;;;;4308288;81;28522;-88
2022/04/24 04:50:16;;;;;;;35.55;21.12;;;;;;;;;;4308197;83;28510;-87
2022/04/24 04:56:17;;;;;;;37.65;21.55;;;;;;;;;;4304868;83;29031;-87
2022/04/24 05:02:18;;;;;;;34.18;19.98;;;;;;;;;;4290996;83;28492;-88
2022/04/24 05:08:19;;;;;;;35.90;21.35;;;;;;;;;;4307756;83;28483;-88
2022/04/24 05:14:20;;;;;;;36.30;21.48;;;;;;;;;;4306348;81;28501;-86
2022/04/24 05:20:21;;;;;;;37.55;21.07;;;;;;;;;;4307577;83;28492;-86
2022/04/24 05:26:22;;;;;;;38.05;22.32;;;;;;;;;;4307753;83;28501;-87
2022/04/24 05:32:23;;;;;;;36.10;21.52;;;;;;;;;;4310911;81;28520;-88
2022/04/24 05:38:24;;;;;;;37.20;22.45;;;;;;;;;;4309289;83;28536;-87
2022/04/24 05:44:25;;;;;;;32.55;19.60;;;;;;;;;;4309288;83;28496;-88
2022/04/24 05:50:26;;;;;;;33.35;20.05;;;;;;;;;;4309377;83;28479;-88
2022/04/24 05:56:26;;;;;;;35.52;21.17;;;;;;;;;;4296302;82;28506;-88
2022/04/24 06:02:27;;;;;;;36.53;21.50;;;;;;;;;;4309299;81;28523;-87
2022/04/24 06:08:31;;;;;;;35.52;21.25;;;;;;;;;;4307152;82;28460;-85
2022/04/24 06:14:32;;;;;;;35.13;21.27;;;;;;;;;;4306075;81;28500;-84
2022/04/24 06:20:32;;;;;;;38.30;23.20;;;;;;;;;;4308576;81;28469;-87
2022/04/24 06:26:33;;;;;;;44.55;25.48;;;;;;;;;;4304726;81;28524;-84
2022/04/24 06:32:38;;;;;;;39.88;24.20;;;;;;;;;;4288082;81;28483;-84
2022/04/24 06:38:41;;;;;;;38.50;23.38;;;;;;;;;;4305700;81;28602;-85
2022/04/24 06:44:42;;;;;;;40.28;24.32;;;;;;;;;;4302666;81;28471;-87
2022/04/24 06:50:44;;;;;;;44.33;25.40;;;;;;;;;;4304130;81;28524;-85
2022/04/24 06:56:45;;;;;;;38.25;24.52;;;;;;;;;;4302209;81;28515;-85
2022/04/24 07:02:46;;;;;;;39.85;23.75;;;;;;;;;;4306499;81;28549;-85
2022/04/24 07:08:49;;;;;;;38.53;23.42;;;;;;;;;;4297094;81;28481;-87
2022/04/24 07:14:50;;;;;;;34.18;20.90;;;;;;;;;;4300171;81;28920;-85
2022/04/24 07:20:54;;;;;;;34.80;23.10;;;;;;;;;;4305309;81;28465;-86
2022/04/24 07:26:55;;;;;;;39.23;24.90;;;;;;;;;;4302633;81;28617;-86
2022/04/24 07:32:57;;;;;;;40.65;24.55;;;;;;;;;;4301936;81;28526;-85
2022/04/24 07:38:58;;;;;;;41.80;25.10;;;;;;;;;;4290412;81;28563;-85
2022/04/24 07:44:58;;;;;;;44.35;27.50;;;;;;;;;;4280490;82;28515;-82
2022/04/24 07:50:59;;;;;;;40.67;25.15;;;;;;;;;;4309959;81;28510;-84
2022/04/24 07:57:00;;;;;;;37.75;22.80;;;;;;;;;;4307258;81;28801;-81
2022/04/24 08:03:06;;;;;;;37.42;22.73;;;;;;;;;;4293548;81;28566;-82
2022/04/24 08:09:06;;;;;;;30.95;19.48;;;;;;;;;;4300934;81;28539;-82
2022/04/24 08:15:08;;;;;;;27.13;17.50;;;;;;;;;;4304679;81;28584;-82
2022/04/24 08:21:13;;;;;;;29.40;18.48;;;;;;;;;;4303364;81;28563;-83
2022/04/24 08:27:14;;;;;;;34.38;20.15;;;;;;;;;;4290102;81;28439;-82
2022/04/24 08:33:17;;;;;;;28.07;17.37;;;;;;;;;;4303006;81;28566;-83
2022/04/24 08:39:18;;;;;;;29.90;19.80;;;;;;;;;;4310035;81;28527;-81
2022/04/24 08:45:21;;;;;;;31.97;20.92;;;;;;;;;;4302724;81;28574;-82
2022/04/24 08:51:26;;;;;;;34.58;22.40;;;;;;;;;;4282730;81;28498;-81
2022/04/24 08:57:27;;;;;;;32.60;21.10;;;;;;;;;;4302817;81;28585;-82
2022/04/24 09:03:29;;;;;;;41.65;25.95;;;;;;;;;;4302108;81;28474;-83
2022/04/24 09:09:34;;;;;;;40.35;26.37;;;;;;;;;;4304431;82;28543;-85
2022/04/24 09:15:35;;;;;;;37.17;23.75;;;;;;;;;;4297965;81;28545;-83
2022/04/24 09:21:36;;;;;;;37.40;24.75;;;;;;;;;;4282393;81;28577;-82
2022/04/24 09:27:37;;;;;;;39.30;25.00;;;;;;;;;;4301476;81;28495;-82
2022/04/24 09:33:40;;;;;;;33.80;21.75;;;;;;;;;;4299269;81;28538;-82
2022/04/24 09:39:44;;;;;;;27.30;18.23;;;;;;;;;;4301474;81;28514;-84
2022/04/24 09:45:54;;;;;;;28.57;18.90;;;;;;;;;;4295706;81;28524;-83
2022/04/24 09:51:56;;;;;;;25.50;16.37;;;;;;;;;;4309054;81;28565;-83
2022/04/24 09:57:57;;;;;;;28.10;16.93;;;;;;;;;;4295012;81;28507;-85
2022/04/24 10:03:57;;;;;;;27.07;17.65;;;;;;;;;;4301821;81;28503;-85
2022/04/24 10:09:59;;;;;;;27.98;17.23;;;;;;;;;;4302707;81;28539;-82
2022/04/24 10:16:11;;;;;;;25.57;17.52;;;;;;;;;;4307695;81;28460;-82
2022/04/24 10:22:26;;;;;;;30.45;20.68;;;;;;;;;;4293271;81;28535;-83
2022/04/24 10:28:29;;;;;;;26.27;18.50;;;;;;;;;;4299029;81;28517;-83
2022/04/24 10:34:31;;;;;;;23.02;16.17;;;;;;;;;;4301072;81;28530;-84
2022/04/24 10:40:33;;;;;;;22.40;16.45;;;;;;;;;;4302505;81;28527;-83
2022/04/24 10:46:35;;;;;;;24.00;16.73;;;;;;;;;;4294013;81;28543;-81
2022/04/24 10:52:40;;;;;;;22.82;15.50;;;;;;;;;;4279771;81;28515;-83
2022/04/24 10:58:41;;;;;;;19.15;12.58;;;;;;;;;;4304381;81;28934;-82
2022/04/24 11:04:43;;;;;;;19.02;12.37;;;;;;;;;;4302529;81;28623;-82
2022/04/24 11:10:45;;;;;;;16.27;12.13;;;;;;;;;;4303952;81;28549;-81
2022/04/24 11:16:50;;;;;;;18.70;12.82;;;;;;;;;;4300390;81;28566;-80
2022/04/24 11:22:51;;;;;;;16.90;11.95;;;;;;;;;;4294523;81;28561;-81
2022/04/24 11:28:52;;;;;;;18.23;12.05;;;;;;;;;;4284196;81;28550;-82
2022/04/24 11:34:53;;;;;;;17.95;12.28;;;;;;;;;;4316216;81;28543;-80
2022/04/24 11:40:54;;;;;;;15.32;10.65;;;;;;;;;;4304794;81;28520;-83
2022/04/24 11:53:17;;;;;;;13.90;9.35;;;;;;;;;;4301422;81;28517;-80
2022/04/24 11:59:21;;;;;;;14.45;9.70;;;;;;;;;;4295596;81;28576;-81
2022/04/24 12:05:24;;;;;;;11.25;7.42;;;;;;;;;;4302913;81;28510;-82
2022/04/24 12:11:29;;;;;;;10.90;7.20;;;;;;;;;;4300024;81;28526;-83
2022/04/24 12:17:30;;;;;;;12.03;8.43;;;;;;;;;;4299813;81;28507;-82
2022/04/24 12:23:31;;;;;;;9.45;6.50;;;;;;;;;;4291589;81;28508;-81
2022/04/24 12:29:39;;;;;;;7.10;5.17;;;;;;;;;;4303446;80;28495;-80
2022/04/24 12:35:41;;;;;;;6.45;4.05;;;;;;;;;;4306476;81;28526;-80
2022/04/24 12:41:42;;;;;;;6.58;3.98;;;;;;;;;;4315636;81;28518;-80
2022/04/24 12:47:43;;;;;;;4.62;3.10;;;;;;;;;;4310835;81;28472;-80
2022/04/24 12:53:44;;;;;;;4.72;2.98;;;;;;;;;;4299698;81;28559;-79
2022/04/24 12:59:49;;;;;;;4.97;2.75;;;;;;;;;;4302511;81;28461;-81
2022/04/24 13:05:51;;;;;;;4.22;2.60;;;;;;;;;;4298758;81;28532;-80
2022/04/24 13:11:53;;;;;;;3.60;2.60;;;;;;;;;;4144395;84;28523;-79
2022/04/24 13:18:09;;;;;;;6.28;2.70;;;;;;;;;;4140964;84;28561;-81
2022/04/24 13:24:10;;;;;;;2.85;2.00;;;;;;;;;;4138372;84;28559;-80
2022/04/24 13:30:11;;;;;;;3.15;2.15;;;;;;;;;;4145895;84;28547;-83
2022/04/24 13:36:13;;;;;;;4.03;2.30;;;;;;;;;;4142976;84;28512;-82
2022/04/24 13:42:14;;;;;;;4.12;2.55;;;;;;;;;;4234586;83;28534;-83
2022/04/24 13:48:16;;;;;;;4.37;2.20;;;;;;;;;;4286034;82;28559;-82
2022/04/24 13:54:20;;;;;;;3.95;2.27;;;;;;;;;;4291017;81;28498;-83
2022/04/24 14:00:23;;;;;;;4.50;1.95;;;;;;;;;;4283524;82;28504;-84
2022/04/24 14:06:24;;;;;;;6.33;2.10;;;;;;;;;;4292396;82;28452;-86
2022/04/24 14:12:25;;;;;;;4.25;1.95;;;;;;;;;;4285623;83;28532;-87
2022/04/24 14:18:29;;;;;;;4.08;2.27;;;;;;;;;;4257265;82;28522;-86
2022/04/24 14:24:30;;;;;;;4.00;2.20;;;;;;;;;;4290811;82;28508;-86
2022/04/24 14:30:31;;;;;;;4.62;2.70;;;;;;;;;;4268902;82;28435;-85
2022/04/24 14:36:32;;;;;;;5.12;2.50;;;;;;;;;;4284807;81;28476;-84
2022/04/24 14:42:36;;;;;;;6.78;3.02;;;;;;;;;;4292637;81;28539;-82
2022/04/24 15:01:17;;;;;;;5.95;3.25;;;;;;;;;;4267434;81;28546;-86
2022/04/24 15:07:18;;;;;;;6.58;3.50;;;;;;;;;;4283031;82;28501;-83
2022/04/24 15:13:20;;;;;;;6.65;3.15;;;;;;;;;;4275546;81;28480;-85
2022/04/24 15:19:20;;;;;;;7.40;3.95;;;;;;;;;;4291063;81;28507;-85
2022/04/24 15:25:24;;;;;;;6.25;3.70;;;;;;;;;;4233475;83;28548;-86
2022/04/24 15:31:24;;;;;;;6.95;3.40;;;;;;;;;;4314439;81;28508;-86
2022/04/24 15:37:27;;;;;;;7.03;4.12;;;;;;;;;;4291544;82;28521;-87
2022/04/24 15:43:28;;;;;;;6.87;4.05;;;;;;;;;;4280538;81;28519;-84
2022/04/24 15:49:31;;;;;;;6.67;3.72;;;;;;;;;;4270557;81;28544;-87
2022/04/24 15:55:32;;;;;;;7.10;4.08;;;;;;;;;;4297270;81;28503;-86
2022/04/24 16:01:33;;;;;;;7.55;4.17;;;;;;;;;;4278577;81;28496;-84
2022/04/24 16:07:35;;;;;;;7.12;4.53;;;;;;;;;;4291919;81;28546;-88
2022/04/24 16:13:37;;;;;;;7.67;4.22;;;;;;;;;;4291844;82;28500;-87
2022/04/24 16:19:38;;;;;;;6.92;4.05;;;;;;;;;;4289862;82;28478;-86
2022/04/24 16:25:39;;;;;;;8.43;5.08;;;;;;;;;;4296682;83;28520;-87
2022/04/24 16:31:41;;;;;;;8.58;4.47;;;;;;;;;;4295691;83;28593;-88
2022/04/24 16:37:42;;;;;;;7.55;4.55;;;;;;;;;;4271561;82;28475;-84
2022/04/24 16:43:44;;;;;;;8.53;4.83;;;;;;;;;;4257187;81;28551;-86
2022/04/24 16:49:44;;;;;;;8.83;5.10;;;;;;;;;;4303707;81;28537;-86
2022/04/24 17:02:00;;;;;;;8.70;5.83;;;;;;;;;;4268182;81;28593;-86
2022/04/24 17:08:06;;;;;;;8.93;5.22;;;;;;;;;;4300744;81;28452;-84
2022/04/24 17:14:05;;;;;;;7.75;5.65;;;;;;;;;;4284937;83;28524;-87
2022/04/24 17:20:06;;;;;;;10.25;5.80;;;;;;;;;;4296654;83;28521;-87
2022/04/24 17:26:07;;;;;;;8.83;5.22;;;;;;;;;;4288091;81;28559;-84
2022/04/24 17:32:08;;;;;;;4.30;2.33;;;;;;;;;;4272743;82;28507;-87
2022/04/24 17:38:13;;;;;;;2.85;1.15;;;;;;;;;;4286335;82;28526;-81
2022/04/24 17:44:16;;;;;;;2.92;0.60;;;;;;;;;;4278188;81;28629;-81
2022/04/24 17:50:18;;;;;;;2.62;0.70;;;;;;;;;;4276829;81;28630;-79
2022/04/24 17:56:23;;;;;;;1.90;0.60;;;;;;;;;;4279825;81;28501;-81
2022/04/24 18:02:26;;;;;;;2.60;0.70;;;;;;;;;;4291432;81;28482;-81
2022/04/24 18:08:30;;;;;;;2.92;0.68;;;;;;;;;;4289566;81;28531;-80
2022/04/24 18:14:34;;;;;;;2.12;0.90;;;;;;;;;;4227454;83;28487;-80
2022/04/24 18:20:37;;;;;;;2.50;1.25;;;;;;;;;;4289545;81;28558;-79
2022/04/24 18:26:38;;;;;;;3.83;1.10;;;;;;;;;;4218054;83;28592;-84
2022/04/24 18:32:38;;;;;;;3.17;1.60;;;;;;;;;;4228135;84;28590;-83
2022/04/24 18:38:41;;;;;;;2.87;1.55;;;;;;;;;;4223188;84;28600;-82
2022/04/24 18:44:42;;;;;;;3.33;1.72;;;;;;;;;;4198455;83;28510;-84
2022/04/24 18:50:43;;;;;;;5.10;2.12;;;;;;;;;;4221130;83;28522;-85
2022/04/24 18:56:45;;;;;;;5.97;2.25;;;;;;;;;;4222307;83;28455;-87
2022/04/24 19:02:47;;;;;;;4.47;2.60;;;;;;;;;;4211877;83;28547;-86
2022/04/24 19:08:48;;;;;;;8.58;3.30;;;;;;;;;;4222832;83;28449;-86
2022/04/24 19:14:51;;;;;;;5.50;3.02;;;;;;;;;;4220152;83;28584;-86
2022/04/24 19:20:54;;;;;;;7.22;3.40;;;;;;;;;;4217165;84;28558;-84
2022/04/24 19:26:55;;;;;;;6.85;3.37;;;;;;;;;;4219594;83;28502;-86
2022/04/24 19:32:59;;;;;;;8.73;3.40;;;;;;;;;;4221807;83;28495;-85
2022/04/24 19:39:01;;;;;;;5.55;3.20;;;;;;;;;;4213721;83;28586;-85
2022/04/24 19:45:03;;;;;;;6.75;3.10;;;;;;;;;;4217935;83;28526;-86
2022/04/24 19:51:05;;;;;;;7.47;2.80;;;;;;;;;;4223414;83;28598;-86
2022/04/24 19:57:06;;;;;;;7.67;3.20;;;;;;;;;;4222657;84;28455;-86
2022/04/24 20:03:07;;;;;;;6.92;3.37;;;;;;;;;;4216064;83;28519;-84
2022/04/24 20:09:10;;;;;;;5.10;2.90;;;;;;;;;;4223900;83;28510;-86
2022/04/24 20:15:11;;;;;;;6.67;3.02;;;;;;;;;;4210233;83;28543;-85
2022/04/24 20:21:13;;;;;;;6.05;2.83;;;;;;;;;;4224836;83;28471;-86
2022/04/24 20:27:14;;;;;;;9.03;3.00;;;;;;;;;;4223215;83;28487;-85
2022/04/24 20:33:14;;;;;;;7.62;4.35;;;;;;;;;;4212500;83;28517;-85
2022/04/24 20:39:15;;;;;;;8.25;4.47;;;;;;;;;;4238643;83;28534;-86
2022/04/24 20:45:17;;;;;;;10.65;4.60;;;;;;;;;;4220979;83;28536;-86
2022/04/24 20:51:18;;;;;;;7.75;4.28;;;;;;;;;;4223744;83;28516;-85
2022/04/24 20:57:19;;;;;;;11.22;5.20;;;;;;;;;;4222813;83;28506;-83
2022/04/24 21:03:20;;;;;;;10.58;5.62;;;;;;;;;;4220028;83;28556;-85
2022/04/24 21:09:25;;;;;;;10.25;5.28;;;;;;;;;;4221879;83;28525;-85
2022/04/24 21:15:26;;;;;;;9.50;5.30;;;;;;;;;;4220693;83;28471;-86
2022/04/24 21:21:28;;;;;;;9.95;4.65;;;;;;;;;;4183567;83;28688;-85
2022/04/24 21:27:29;;;;;;;8.53;4.45;;;;;;;;;;4209506;83;28497;-87
2022/04/24 21:33:30;;;;;;;6.42;3.72;;;;;;;;;;4211919;84;28474;-85
2022/04/24 21:39:32;;;;;;;7.55;4.25;;;;;;;;;;4217879;83;28520;-86
2022/04/24 21:45:34;;;;;;;9.85;4.70;;;;;;;;;;4222387;84;28482;-85
2022/04/24 21:51:38;;;;;;;9.20;4.45;;;;;;;;;;4222100;83;28518;-85
2022/04/24 21:57:38;;;;;;;7.55;3.92;;;;;;;;;;4264146;82;28499;-85
2022/04/24 22:09:58;;;;;;;8.00;3.90;;;;;;;;;;4281796;83;28499;-84
2022/04/24 22:15:59;;;;;;;7.15;4.20;;;;;;;;;;4267227;83;28599;-83
2022/04/24 22:28:20;;;;;;;8.45;4.67;;;;;;;;;;4282699;82;28542;-86
2022/04/24 22:34:21;;;;;;;8.30;4.08;;;;;;;;;;4259238;82;28566;-85
2022/04/24 22:40:24;;;;;;;6.85;3.52;;;;;;;;;;4265083;83;28514;-84
2022/04/24 22:46:24;;;;;;;7.05;3.83;;;;;;;;;;4268492;83;28594;-85
2022/04/24 22:52:25;;;;;;;6.00;2.90;;;;;;;;;;4297127;83;28577;-84
2022/04/24 22:58:26;;;;;;;6.28;3.10;;;;;;;;;;4301041;83;28505;-84
2022/04/24 23:04:27;;;;;;;5.58;3.33;;;;;;;;;;4299738;83;28522;-84
2022/04/24 23:10:28;;;;;;;6.22;2.77;;;;;;;;;;4300828;82;28552;-85
2022/04/24 23:16:29;;;;;;;5.28;2.85;;;;;;;;;;4283024;81;28473;-84
2022/04/24 23:22:30;;;;;;;6.72;2.55;;;;;;;;;;4289886;83;28454;-83
2022/04/24 23:28:31;;;;;;;4.15;2.67;;;;;;;;;;4296933;83;28557;-84
2022/04/24 23:34:35;;;;;;;5.05;2.70;;;;;;;;;;4294722;81;28494;-83
2022/04/24 23:40:34;;;;;;;5.10;2.50;;;;;;;;;;4299563;82;28487;-83
2022/04/24 23:46:36;;;;;;;4.35;2.45;;;;;;;;;;4250015;82;28582;-83
2022/04/24 23:52:37;;;;;;;5.00;2.80;;;;;;;;;;4254109;83;28526;-84
2022/04/24 23:58:38;;;;;;;4.58;2.35;;;;;;;;;;4254066;82;28471;-85
